createdAt,value
2018-03-21T00:00:39.139Z,14.63
2018-03-21T00:03:07.263Z,14.43
2018-03-21T00:05:35.372Z,15.80
2018-03-21T00:08:03.605Z,15.93
2018-03-21T00:10:31.716Z,14.30
2018-03-21T00:12:59.978Z,12.70
2018-03-21T00:15:28.177Z,12.77
2018-03-21T00:17:56.433Z,18.67
2018-03-21T00:20:24.671Z,14.33
2018-03-21T00:22:52.840Z,12.90
2018-03-21T00:25:21.036Z,13.63
2018-03-21T00:27:49.194Z,14.97
2018-03-21T00:30:18.137Z,12.50
2018-03-21T00:32:46.307Z,13.63
2018-03-21T00:35:14.455Z,12.77
2018-03-21T00:37:49.086Z,13.53
2018-03-21T00:40:17.198Z,13.40
2018-03-21T00:42:45.453Z,11.10
2018-03-21T00:45:13.610Z,10.23
2018-03-21T00:47:41.741Z,10.37
2018-03-21T00:50:10.857Z,12.60
2018-03-21T00:52:38.990Z,11.07
2018-03-21T00:55:07.203Z,11.90
2018-03-21T00:57:35.329Z,11.47
2018-03-21T01:00:03.480Z,13.43
2018-03-21T01:02:31.621Z,15.27
2018-03-21T01:04:59.861Z,10.83
2018-03-21T01:07:28.068Z,11.80
2018-03-21T01:09:56.991Z,11.80
2018-03-21T01:12:25.151Z,11.47
2018-03-21T01:14:53.368Z,11.77
2018-03-21T01:17:21.500Z,12.13
2018-03-21T01:19:49.673Z,12.47
2018-03-21T01:22:17.926Z,12.70
2018-03-21T01:24:46.079Z,13.97
2018-03-21T01:27:14.996Z,15.67
2018-03-21T01:29:43.164Z,12.23
2018-03-21T01:32:12.094Z,12.93
2018-03-21T01:34:40.341Z,13.23
2018-03-21T01:37:08.453Z,12.27
2018-03-21T01:39:37.444Z,9.37
2018-03-21T01:42:05.589Z,12.87
2018-03-21T01:44:33.768Z,11.60
2018-03-21T01:47:01.907Z,12.93
2018-03-21T01:49:30.036Z,13.53
2018-03-21T01:51:58.204Z,11.80
2018-03-21T01:54:26.449Z,13.20
2018-03-21T01:56:54.755Z,10.77
2018-03-21T01:59:23.656Z,17.23
2018-03-21T02:01:52.574Z,12.70
2018-03-21T02:04:21.494Z,12.97
2018-03-21T02:06:49.715Z,13.07
2018-03-21T02:09:17.883Z,11.07
2018-03-21T02:11:46.576Z,12.33
2018-03-21T02:14:15.369Z,11.17
2018-03-21T02:16:44.125Z,15.80
2018-03-21T02:19:13.552Z,14.07
2018-03-21T02:21:42.536Z,12.40
2018-03-21T02:24:10.690Z,13.47
2018-03-21T02:26:38.905Z,12.20
2018-03-21T02:29:07.045Z,11.97
2018-03-21T02:31:35.202Z,12.27
2018-03-21T02:34:04.116Z,11.33
2018-03-21T02:36:32.304Z,15.03
2018-03-21T02:39:00.593Z,11.60
2018-03-21T02:41:29.508Z,11.30
2018-03-21T02:43:57.733Z,13.57
2018-03-21T02:46:25.914Z,15.17
2018-03-21T02:48:54.156Z,15.60
2018-03-21T02:51:22.414Z,11.80
2018-03-21T02:53:50.588Z,12.37
2018-03-21T02:56:18.714Z,13.10
2018-03-21T02:58:47.704Z,13.43
2018-03-21T03:01:15.809Z,12.23
2018-03-21T03:03:44.748Z,14.03
2018-03-21T03:06:12.924Z,12.17
2018-03-21T03:08:41.125Z,11.43
2018-03-21T03:11:09.269Z,11.13
2018-03-21T03:13:38.250Z,11.07
2018-03-21T03:16:06.394Z,11.47
2018-03-21T03:18:34.622Z,10.93
2018-03-21T03:21:02.837Z,12.20
2018-03-21T03:23:31.758Z,15.47
2018-03-21T03:25:59.889Z,16.43
2018-03-21T03:28:28.041Z,16.13
2018-03-21T03:30:56.259Z,21.67
2018-03-21T03:33:24.402Z,16.97
2018-03-21T03:35:52.582Z,18.93
2018-03-21T03:38:21.480Z,18.07
2018-03-21T03:40:50.463Z,16.90
2018-03-21T03:43:18.613Z,19.03
2018-03-21T03:45:46.829Z,16.60
2018-03-21T03:48:14.973Z,13.67
2018-03-21T03:50:43.470Z,21.57
2018-03-21T03:53:11.634Z,20.60
2018-03-21T03:55:39.846Z,17.67
2018-03-21T03:58:08.015Z,16.20
2018-03-21T04:00:36.144Z,20.70
2018-03-21T04:03:04.416Z,16.33
2018-03-21T04:05:32.557Z,17.67
2018-03-21T04:08:01.486Z,16.57
2018-03-21T04:10:29.734Z,19.27
2018-03-21T04:12:57.944Z,17.13
2018-03-21T04:15:26.100Z,17.90
2018-03-21T04:17:54.308Z,16.97
2018-03-21T04:20:23.282Z,14.77
2018-03-21T04:22:51.440Z,15.80
2018-03-21T04:25:19.610Z,15.23
2018-03-21T04:27:47.785Z,19.97
2018-03-21T04:30:15.937Z,17.73
2018-03-21T04:32:44.523Z,14.47
2018-03-21T04:35:12.713Z,15.23
2018-03-21T04:37:40.970Z,15.90
2018-03-21T04:40:09.089Z,17.63
2018-03-21T04:42:37.229Z,13.37
2018-03-21T04:45:05.410Z,17.50
2018-03-21T04:47:33.567Z,16.03
2018-03-21T04:50:02.550Z,16.60
2018-03-21T04:52:30.741Z,17.40
2018-03-21T04:55:00.466Z,18.37
2018-03-21T04:57:28.600Z,16.33
2018-03-21T04:59:56.729Z,17.07
2018-03-21T05:02:24.891Z,20.50
2018-03-21T05:04:53.041Z,19.03
2018-03-21T05:07:21.237Z,20.77
2018-03-21T05:09:49.501Z,23.67
2018-03-21T05:12:17.647Z,26.40
2018-03-21T05:14:45.916Z,20.37
2018-03-21T05:17:14.212Z,21.23
2018-03-21T05:19:42.366Z,25.17
2018-03-21T05:22:10.488Z,29.37
2018-03-21T05:24:38.627Z,20.93
2018-03-21T05:27:07.569Z,25.30
2018-03-21T05:29:35.697Z,26.23
2018-03-21T05:32:04.685Z,27.97
2018-03-21T05:34:32.892Z,40.10
2018-03-21T05:37:01.045Z,37.33
2018-03-21T05:39:29.191Z,38.53
2018-03-21T05:41:57.374Z,35.23
2018-03-21T05:44:25.481Z,31.90
2018-03-21T05:46:53.672Z,30.80
2018-03-21T05:49:22.649Z,26.73
2018-03-21T05:51:51.629Z,22.90
2018-03-21T05:54:19.753Z,22.37
2018-03-21T05:56:48.684Z,23.40
2018-03-21T05:59:17.040Z,25.13
2018-03-21T06:01:45.945Z,24.97
2018-03-21T06:04:14.122Z,21.27
2018-03-21T06:06:43.044Z,21.87
2018-03-21T06:09:11.276Z,17.53
2018-03-21T06:11:39.755Z,14.40
2018-03-21T06:14:07.876Z,13.97
2018-03-21T06:16:36.068Z,13.50
2018-03-21T06:19:04.220Z,12.97
2018-03-21T06:21:32.425Z,12.23
2018-03-21T06:24:00.608Z,11.40
2018-03-21T06:26:28.776Z,11.13
2018-03-21T06:28:56.883Z,10.13
2018-03-21T06:31:26.522Z,10.33
2018-03-21T06:33:54.632Z,9.37
2018-03-21T06:36:22.895Z,10.60
2018-03-21T06:38:50.995Z,9.13
2018-03-21T06:41:19.920Z,7.93
2018-03-21T06:43:48.020Z,8.73
2018-03-21T06:46:16.250Z,7.67
2018-03-21T06:48:44.420Z,7.90
2018-03-21T06:51:12.570Z,9.97
2018-03-21T06:53:40.713Z,8.50
2018-03-21T06:56:08.825Z,7.93
2018-03-21T06:58:36.959Z,7.67
2018-03-21T07:01:05.302Z,7.70
2018-03-21T07:03:33.452Z,7.87
2018-03-21T07:06:01.559Z,7.77
2018-03-21T07:08:29.705Z,8.00
2018-03-21T07:10:57.867Z,8.00
2018-03-21T07:13:25.958Z,8.57
2018-03-21T07:16:05.952Z,7.77
2018-03-21T07:18:34.148Z,8.80
2018-03-21T07:21:02.359Z,7.73
2018-03-21T07:23:30.498Z,8.33
2018-03-21T07:25:59.062Z,9.07
2018-03-21T07:28:27.290Z,9.60
2018-03-21T07:30:55.510Z,8.83
2018-03-21T07:33:24.488Z,9.80
2018-03-21T07:35:52.589Z,9.27
2018-03-21T07:38:21.566Z,9.57
2018-03-21T07:40:49.712Z,9.63
2018-03-21T07:43:18.290Z,8.97
2018-03-21T07:45:46.395Z,9.03
2018-03-21T07:48:14.557Z,8.20
2018-03-21T07:50:42.818Z,9.87
2018-03-21T07:53:10.965Z,9.20
2018-03-21T07:55:39.152Z,9.00
2018-03-21T07:58:07.249Z,8.23
2018-03-21T08:00:35.303Z,9.27
2018-03-21T08:03:03.487Z,9.90
2018-03-21T08:05:31.656Z,9.30
2018-03-21T08:08:00.542Z,9.30
2018-03-21T08:10:28.678Z,9.47
2018-03-21T08:12:56.772Z,11.90
2018-03-21T08:15:25.275Z,9.47
2018-03-21T08:17:53.450Z,10.07
2018-03-21T08:20:21.624Z,9.33
2018-03-21T08:22:49.718Z,11.23
2018-03-21T08:25:18.122Z,11.57
2018-03-21T08:27:46.246Z,10.13
2018-03-21T08:30:15.210Z,10.33
2018-03-21T08:32:43.316Z,9.47
2018-03-21T08:35:11.443Z,11.63
2018-03-21T08:37:39.584Z,11.00
2018-03-21T08:40:07.737Z,10.30
2018-03-21T08:42:35.871Z,10.53
2018-03-21T08:45:04.079Z,10.63
2018-03-21T08:47:32.943Z,9.63
2018-03-21T08:50:01.048Z,8.63
2018-03-21T08:52:29.210Z,9.03
2018-03-21T08:54:57.332Z,10.33
2018-03-21T08:57:27.428Z,8.60
2018-03-21T08:59:56.140Z,8.47
2018-03-21T09:02:24.249Z,9.00
2018-03-21T09:04:53.157Z,8.57
2018-03-21T09:07:21.313Z,9.60
2018-03-21T09:09:49.460Z,8.43
2018-03-21T09:12:17.573Z,7.83
2018-03-21T09:14:45.734Z,8.27
2018-03-21T09:17:13.871Z,6.67
2018-03-21T09:19:41.990Z,7.83
2018-03-21T09:22:10.209Z,8.13
2018-03-21T09:24:38.343Z,7.63
2018-03-21T09:27:07.246Z,7.73
2018-03-21T09:29:36.236Z,6.80
2018-03-21T09:32:04.464Z,6.47
2018-03-21T09:34:32.557Z,6.47
2018-03-21T09:37:00.655Z,6.77
2018-03-21T09:39:28.783Z,7.50
2018-03-21T09:41:56.891Z,7.63
2018-03-21T09:44:25.840Z,8.37
2018-03-21T09:46:53.922Z,7.07
2018-03-21T09:49:22.025Z,6.80
2018-03-21T09:51:50.150Z,6.30
2018-03-21T09:54:19.695Z,6.83
2018-03-21T09:56:47.839Z,7.70
2018-03-21T09:59:16.735Z,7.10
2018-03-21T10:01:44.944Z,6.37
2018-03-21T10:04:13.798Z,8.00
2018-03-21T10:06:41.901Z,6.97
2018-03-21T10:09:10.104Z,6.07
2018-03-21T10:11:38.997Z,8.63
2018-03-21T10:14:07.894Z,7.67
2018-03-21T10:16:36.016Z,6.43
2018-03-21T10:19:04.224Z,7.53
2018-03-21T10:21:32.440Z,7.67
2018-03-21T10:24:00.537Z,6.90
2018-03-21T10:26:28.707Z,5.97
2018-03-21T10:28:56.891Z,7.03
2018-03-21T10:31:25.085Z,6.23
2018-03-21T10:33:53.196Z,6.93
2018-03-21T10:36:22.105Z,7.10
2018-03-21T10:38:50.314Z,8.27
2018-03-21T10:41:18.464Z,6.43
2018-03-21T10:43:46.574Z,6.13
2018-03-21T10:46:14.804Z,6.60
2018-03-21T10:48:43.006Z,6.80
2018-03-21T10:51:11.169Z,5.67
2018-03-21T10:53:39.273Z,5.60
2018-03-21T10:56:07.396Z,5.40
2018-03-21T10:58:36.364Z,5.50
2018-03-21T11:01:10.305Z,5.30
2018-03-21T11:03:38.415Z,5.17
2018-03-21T11:06:06.539Z,5.13
2018-03-21T11:08:34.605Z,4.87
2018-03-21T11:11:02.833Z,4.90
2018-03-21T11:13:30.989Z,4.80
2018-03-21T11:15:59.892Z,4.80
2018-03-21T11:18:28.048Z,4.30
2018-03-21T11:20:56.960Z,5.70
2018-03-21T11:23:25.497Z,4.40
2018-03-21T11:25:53.611Z,5.23
2018-03-21T11:28:21.739Z,4.73
2018-03-21T11:30:49.872Z,4.57
2018-03-21T11:33:18.090Z,4.33
2018-03-21T11:35:46.938Z,5.13
2018-03-21T11:38:15.089Z,3.70
2018-03-21T11:40:43.237Z,4.60
2018-03-21T11:43:11.418Z,3.53
2018-03-21T11:45:39.669Z,3.87
2018-03-21T11:48:07.790Z,3.90
2018-03-21T11:50:36.012Z,4.23
2018-03-21T11:53:04.215Z,3.93
2018-03-21T11:55:32.361Z,4.00
2018-03-21T11:58:01.266Z,4.60
2018-03-21T12:00:29.447Z,4.30
2018-03-21T12:02:57.525Z,4.73
2018-03-21T12:05:25.705Z,4.67
2018-03-21T12:07:53.901Z,4.17
2018-03-21T12:10:22.040Z,4.10
2018-03-21T12:12:50.135Z,5.07
2018-03-21T12:15:18.322Z,3.80
2018-03-21T12:17:46.516Z,3.70
2018-03-21T12:20:14.633Z,3.67
2018-03-21T12:22:43.180Z,4.07
2018-03-21T12:25:11.419Z,4.03
2018-03-21T12:27:39.524Z,4.17
2018-03-21T12:30:08.568Z,4.03
2018-03-21T12:32:36.668Z,4.20
2018-03-21T12:35:05.128Z,3.90
2018-03-21T12:37:34.389Z,4.67
2018-03-21T12:40:02.563Z,5.07
2018-03-21T12:42:30.673Z,4.80
2018-03-21T12:44:59.684Z,4.87
2018-03-21T12:47:28.624Z,4.10
2018-03-21T12:49:56.856Z,3.93
2018-03-21T12:52:25.040Z,4.37
2018-03-21T12:54:53.171Z,4.93
2018-03-21T12:57:21.363Z,5.00
2018-03-21T12:59:49.512Z,4.77
2018-03-21T13:02:17.654Z,4.67
2018-03-21T13:04:45.748Z,4.10
2018-03-21T13:07:13.870Z,4.13
2018-03-21T13:09:41.953Z,4.03
2018-03-21T13:12:10.115Z,4.43
2018-03-21T13:14:38.248Z,3.77
2018-03-21T13:17:07.112Z,3.93
2018-03-21T13:19:35.319Z,4.57
2018-03-21T13:22:04.207Z,3.60
2018-03-21T13:24:32.765Z,3.97
2018-03-21T13:27:00.890Z,3.60
2018-03-21T13:29:29.829Z,3.30
2018-03-21T13:31:58.746Z,3.63
2018-03-21T13:34:26.890Z,3.37
2018-03-21T13:36:55.065Z,3.77
2018-03-21T13:39:23.172Z,3.43
2018-03-21T13:41:52.140Z,3.70
2018-03-21T13:44:20.372Z,3.40
2018-03-21T13:46:48.672Z,2.97
2018-03-21T13:49:17.640Z,2.87
2018-03-21T13:51:45.876Z,2.90
2018-03-21T13:54:14.068Z,2.83
2018-03-21T13:56:42.402Z,4.30
2018-03-21T13:59:10.492Z,2.63
2018-03-21T14:01:39.463Z,3.07
2018-03-21T14:04:07.567Z,5.47
2018-03-21T14:06:35.649Z,4.03
2018-03-21T14:09:03.805Z,3.10
2018-03-21T14:11:31.904Z,3.30
2018-03-21T14:14:00.085Z,3.30
2018-03-21T14:16:28.243Z,3.83
2018-03-21T14:18:56.488Z,3.43
2018-03-21T14:21:24.617Z,3.17
2018-03-21T14:23:53.543Z,2.83
2018-03-21T14:26:21.640Z,2.83
2018-03-21T14:28:49.812Z,3.13
2018-03-21T14:31:17.929Z,3.13
2018-03-21T14:33:46.180Z,3.37
2018-03-21T14:36:14.307Z,3.17
2018-03-21T14:38:42.414Z,3.23
2018-03-21T14:41:11.503Z,3.17
2018-03-21T14:43:39.648Z,3.73
2018-03-21T14:46:07.844Z,2.53
2018-03-21T14:48:36.016Z,3.27
2018-03-21T14:51:04.096Z,2.90
2018-03-21T14:53:32.243Z,4.07
2018-03-21T14:56:00.355Z,3.67
2018-03-21T14:58:29.239Z,3.00
2018-03-21T15:00:57.372Z,3.40
2018-03-21T15:03:25.529Z,4.57
2018-03-21T15:05:54.453Z,3.17
2018-03-21T15:08:22.631Z,3.37
2018-03-21T15:10:50.795Z,2.57
2018-03-21T15:13:19.696Z,2.90
2018-03-21T15:15:47.876Z,3.30
2018-03-21T15:18:16.035Z,2.57
2018-03-21T15:20:44.159Z,2.60
2018-03-21T15:23:13.017Z,2.73
2018-03-21T15:25:41.260Z,4.43
2018-03-21T15:28:09.431Z,2.77
2018-03-21T15:30:38.394Z,2.97
2018-03-21T15:33:06.552Z,4.17
2018-03-21T15:35:34.664Z,4.73
2018-03-21T15:38:02.875Z,3.00
2018-03-21T15:40:30.986Z,2.67
2018-03-21T15:42:59.940Z,3.20
2018-03-21T15:45:28.086Z,3.23
2018-03-21T15:47:56.995Z,3.43
2018-03-21T15:50:25.181Z,2.50
2018-03-21T15:52:53.341Z,2.10
2018-03-21T15:55:21.456Z,2.20
2018-03-21T15:57:49.588Z,2.80
2018-03-21T16:00:17.718Z,2.60
2018-03-21T16:02:45.904Z,2.97
2018-03-21T16:05:14.805Z,2.50
2018-03-21T16:07:43.768Z,2.17
2018-03-21T16:10:11.979Z,2.00
2018-03-21T16:12:40.946Z,2.67
2018-03-21T16:15:09.150Z,3.00
2018-03-21T16:17:37.335Z,2.13
2018-03-21T16:20:05.476Z,2.23
2018-03-21T16:22:33.583Z,1.93
2018-03-21T16:25:01.781Z,3.20
2018-03-21T16:27:29.953Z,2.17
2018-03-21T16:29:58.077Z,2.23
2018-03-21T16:32:26.242Z,4.13
2018-03-21T16:34:54.365Z,2.20
2018-03-21T16:37:23.224Z,2.17
2018-03-21T16:39:51.441Z,2.97
2018-03-21T16:42:19.609Z,1.90
2018-03-21T16:44:47.797Z,3.70
2018-03-21T16:47:15.939Z,3.50
2018-03-21T16:49:44.165Z,1.77
2018-03-21T16:52:12.300Z,2.13
2018-03-21T16:54:40.440Z,1.93
2018-03-21T16:57:08.563Z,2.77
2018-03-21T16:59:37.538Z,2.37
2018-03-21T17:02:05.679Z,1.60
2018-03-21T17:04:33.852Z,2.20
2018-03-21T17:07:01.979Z,2.67
2018-03-21T17:09:30.187Z,2.63
2018-03-21T17:11:58.346Z,2.30
2018-03-21T17:14:26.458Z,1.80
2018-03-21T17:16:54.706Z,2.50
2018-03-21T17:19:22.869Z,2.87
2018-03-21T17:21:51.768Z,3.43
2018-03-21T17:24:19.906Z,4.17
2018-03-21T17:26:48.168Z,3.33
2018-03-21T17:29:16.327Z,2.90
2018-03-21T17:31:44.484Z,2.97
2018-03-21T17:34:12.630Z,4.03
2018-03-21T17:36:40.831Z,4.10
2018-03-21T17:39:08.928Z,3.27
2018-03-21T17:41:37.124Z,3.73
2018-03-21T17:44:05.269Z,2.63
2018-03-21T17:46:33.431Z,2.90
2018-03-21T17:49:02.292Z,3.00
2018-03-21T17:51:30.475Z,3.17
2018-03-21T17:53:58.981Z,2.20
2018-03-21T17:56:27.108Z,3.50
2018-03-21T17:58:55.242Z,2.67
2018-03-21T18:01:23.378Z,2.93
2018-03-21T18:03:51.505Z,2.53
2018-03-21T18:06:19.704Z,2.37
2018-03-21T18:08:47.834Z,3.33
2018-03-21T18:11:15.965Z,3.83
2018-03-21T18:13:44.114Z,2.97
2018-03-21T18:16:12.256Z,3.93
2018-03-21T18:18:40.380Z,3.60
2018-03-21T18:21:08.589Z,2.63
2018-03-21T18:23:36.786Z,3.20
2018-03-21T18:26:04.889Z,4.30
2018-03-21T18:28:32.982Z,9.73
2018-03-21T18:31:01.139Z,10.10
2018-03-21T18:33:29.526Z,8.53
2018-03-21T18:35:57.685Z,6.97
2018-03-21T18:38:25.884Z,8.97
2018-03-21T18:40:54.054Z,8.87
2018-03-21T18:43:22.266Z,10.30
2018-03-21T18:45:50.382Z,9.53
2018-03-21T18:48:18.484Z,11.70
2018-03-21T18:50:46.640Z,13.50
2018-03-21T18:53:14.766Z,11.57
2018-03-21T18:55:43.662Z,10.33
2018-03-21T18:58:11.790Z,12.47
2018-03-21T19:00:39.935Z,13.17
2018-03-21T19:03:08.089Z,13.80
2018-03-21T19:05:36.236Z,12.67
2018-03-21T19:08:04.527Z,8.83
2018-03-21T19:10:32.657Z,9.60
2018-03-21T19:13:00.898Z,12.17
2018-03-21T19:15:29.471Z,17.70
2018-03-21T19:17:58.361Z,18.10
2018-03-21T19:20:27.262Z,15.17
2018-03-21T19:22:56.188Z,14.13
2018-03-21T19:25:25.072Z,14.07
2018-03-21T19:27:53.219Z,16.30
2018-03-21T19:30:21.428Z,17.60
2018-03-21T19:32:49.569Z,7.40
2018-03-21T19:35:17.689Z,7.40
2018-03-21T19:37:46.074Z,11.50
2018-03-21T19:40:14.202Z,14.90
2018-03-21T19:42:43.069Z,13.93
2018-03-21T19:45:11.214Z,10.43
2018-03-21T19:47:39.367Z,15.03
2018-03-21T19:50:07.520Z,12.40
2018-03-21T19:52:35.658Z,12.43
2018-03-21T19:55:03.885Z,11.80
2018-03-21T19:57:32.017Z,14.10
2018-03-21T20:00:00.925Z,13.30
2018-03-21T20:02:29.812Z,26.80
2018-03-21T20:04:57.959Z,15.10
2018-03-21T20:07:26.160Z,20.27
2018-03-21T20:09:54.298Z,10.07
2018-03-21T20:12:23.200Z,11.77
2018-03-21T20:14:52.113Z,12.17
2018-03-21T20:17:20.238Z,9.77
2018-03-21T20:19:48.641Z,10.17
2018-03-21T20:22:16.859Z,8.37
2018-03-21T20:24:44.991Z,12.23
2018-03-21T20:27:13.099Z,9.03
2018-03-21T20:29:41.241Z,11.67
2018-03-21T20:32:09.391Z,12.60
2018-03-21T20:34:37.477Z,9.83
2018-03-21T20:37:06.397Z,14.17
2018-03-21T20:39:34.574Z,15.30
2018-03-21T20:42:03.485Z,9.57
2018-03-21T20:44:32.821Z,11.30
2018-03-21T20:47:00.960Z,11.87
2018-03-21T20:49:29.112Z,11.40
2018-03-21T20:51:57.280Z,11.87
2018-03-21T20:54:25.413Z,11.20
2018-03-21T20:56:53.538Z,11.40
2018-03-21T20:59:21.680Z,14.13
2018-03-21T21:01:50.030Z,9.37
2018-03-21T21:04:18.150Z,8.33
2018-03-21T21:06:46.314Z,10.90
2018-03-21T21:09:14.436Z,11.57
2018-03-21T21:11:42.660Z,8.87
2018-03-21T21:14:11.609Z,16.03
2018-03-21T21:16:39.736Z,9.73
2018-03-21T21:19:07.898Z,9.57
2018-03-21T21:21:36.041Z,11.70
2018-03-21T21:24:05.014Z,10.23
2018-03-21T21:26:33.892Z,8.70
2018-03-21T21:29:02.782Z,11.77
2018-03-21T21:31:30.937Z,8.10
2018-03-21T21:33:59.205Z,10.43
2018-03-21T21:36:27.318Z,9.47
2018-03-21T21:38:55.444Z,8.23
2018-03-21T21:41:23.629Z,7.00
2018-03-21T21:43:51.834Z,10.00
2018-03-21T21:46:19.977Z,9.80
2018-03-21T21:48:48.112Z,8.17
2018-03-21T21:51:17.084Z,18.37
2018-03-21T21:53:45.414Z,10.33
2018-03-21T21:56:14.356Z,9.53
2018-03-21T21:58:42.545Z,9.90
2018-03-21T22:01:10.786Z,7.90
2018-03-21T22:03:39.664Z,10.43
2018-03-21T22:06:07.852Z,9.37
2018-03-21T22:08:35.976Z,11.70
2018-03-21T22:11:04.076Z,11.27
2018-03-21T22:13:32.249Z,8.00
2018-03-21T22:16:00.441Z,7.83
2018-03-21T22:18:28.534Z,8.37
2018-03-21T22:20:56.754Z,8.63
2018-03-21T22:23:24.948Z,11.00
2018-03-21T22:25:53.118Z,10.73
2018-03-21T22:28:21.230Z,9.97
2018-03-21T22:30:49.387Z,10.20
2018-03-21T22:33:17.644Z,9.13
2018-03-21T22:35:45.850Z,7.37
2018-03-21T22:38:14.009Z,10.00
2018-03-21T22:40:42.197Z,9.60
2018-03-21T22:43:10.563Z,10.00
2018-03-21T22:45:38.742Z,7.27
2018-03-21T22:48:06.942Z,8.13
2018-03-21T22:50:35.047Z,9.93
2018-03-21T22:53:03.175Z,7.43
2018-03-21T22:55:31.380Z,11.97
2018-03-21T22:57:59.580Z,8.40
2018-03-21T23:00:27.752Z,8.53
2018-03-21T23:02:57.396Z,7.97
2018-03-21T23:05:26.319Z,6.07
2018-03-21T23:07:54.589Z,13.00
2018-03-21T23:10:22.711Z,6.73
2018-03-21T23:12:50.844Z,7.73
2018-03-21T23:15:18.963Z,8.50
2018-03-21T23:17:47.111Z,6.20
2018-03-21T23:20:15.217Z,7.40
2018-03-21T23:22:44.175Z,7.07
2018-03-21T23:25:12.325Z,6.83
2018-03-21T23:27:40.468Z,6.60
2018-03-21T23:30:08.623Z,11.27
2018-03-21T23:32:36.794Z,7.17
2018-03-21T23:35:04.923Z,9.03
2018-03-21T23:37:33.148Z,9.43
2018-03-21T23:40:02.058Z,11.03
2018-03-21T23:42:30.189Z,11.93
2018-03-21T23:44:58.384Z,11.93
2018-03-21T23:47:26.550Z,10.73
2018-03-21T23:49:54.707Z,10.50
2018-03-21T23:52:22.894Z,11.83
2018-03-21T23:54:51.057Z,8.70
2018-03-21T23:57:19.185Z,8.20
2018-03-21T23:59:47.453Z,9.77
